AOJ74J EHGG-EDRY
Flight info
| Callsign | AOJ74J |
|---|---|
| Flight time | 1h 19m |
| Altitude | 31000 |
| Route | NAPRO Z739 DEGOM L603 BOMBI N850 RINEX Z54 RINEX |
| Aircraft | C750/M-SBDE3FGHRWXY/S |
Departure
| Time | 2026-05-08 18:06 |
|---|---|
| Airport | Groningen Airport Eelde (EHGG) |
Arrival
| Time | 2026-05-08 19:26 |
|---|---|
| Airport | Speyer Airfield (EDRY) |
| Time | Latitude | Longitude | Altitude | Speed | Heading |
|---|---|---|---|---|---|
| 2026-05-08 17:41 | 53.12961 | 6.58449 | 19 ft | 0 kts | 193° |
| 2026-05-08 17:58 | 53.12951 | 6.58445 | 19 ft | 4 kts | 193° |
| 2026-05-08 17:58 | 53.12949 | 6.58407 | 19 ft | 7 kts | 295° |
| 2026-05-08 17:59 | 53.12981 | 6.58316 | 19 ft | 13 kts | 305° |
| 2026-05-08 17:59 | 53.13041 | 6.58185 | 19 ft | 15 kts | 297° |
| 2026-05-08 17:59 | 53.13034 | 6.58021 | 20 ft | 15 kts | 209° |
| 2026-05-08 17:59 | 53.12923 | 6.57990 | 20 ft | 17 kts | 188° |
| 2026-05-08 18:00 | 53.12787 | 6.57955 | 17 ft | 22 kts | 188° |
| 2026-05-08 18:00 | 53.12451 | 6.57867 | 17 ft | 26 kts | 189° |
| 2026-05-08 18:00 | 53.12265 | 6.57823 | 21 ft | 27 kts | 189° |
| 2026-05-08 18:01 | 53.12121 | 6.57748 | 20 ft | 20 kts | 231° |
| 2026-05-08 18:01 | 53.12030 | 6.57557 | 19 ft | 22 kts | 232° |
| 2026-05-08 18:01 | 53.11929 | 6.57343 | 18 ft | 24 kts | 232° |
| 2026-05-08 18:01 | 53.11820 | 6.57111 | 18 ft | 27 kts | 232° |
| 2026-05-08 18:02 | 53.11729 | 6.56918 | 19 ft | 19 kts | 232° |
| 2026-05-08 18:02 | 53.11671 | 6.56814 | 19 ft | 18 kts | 211° |
| 2026-05-08 18:02 | 53.11523 | 6.56894 | 21 ft | 18 kts | 161° |
| 2026-05-08 18:02 | 53.11428 | 6.56766 | 18 ft | 21 kts | 231° |
| 2026-05-08 18:03 | 53.11331 | 6.56561 | 17 ft | 24 kts | 231° |
| 2026-05-08 18:03 | 53.11224 | 6.56336 | 19 ft | 21 kts | 231° |
| 2026-05-08 18:03 | 53.11181 | 6.56163 | 19 ft | 11 kts | 232° |
| 2026-05-08 18:03 | 53.11150 | 6.56170 | 19 ft | 4 kts | 74° |
| 2026-05-08 18:04 | 53.11164 | 6.56203 | 19 ft | 5 kts | 65° |
| 2026-05-08 18:04 | 53.11185 | 6.56252 | 20 ft | 5 kts | 54° |
| 2026-05-08 18:04 | 53.11195 | 6.56275 | 19 ft | 0 kts | 51° |
| 2026-05-08 18:05 | 53.11330 | 6.56559 | 17 ft | 89 kts | 51° |
| 2026-05-08 18:06 | 53.11885 | 6.57723 | 124 ft | 149 kts | 53° |
| 2026-05-08 18:06 | 53.12584 | 6.59161 | 676 ft | 170 kts | 53° |
| 2026-05-08 18:06 | 53.13356 | 6.60682 | 1512 ft | 175 kts | 52° |
| 2026-05-08 18:06 | 53.14138 | 6.62246 | 2416 ft | 174 kts | 52° |
| 2026-05-08 18:07 | 53.14704 | 6.63981 | 3263 ft | 172 kts | 76° |
| 2026-05-08 18:07 | 53.14715 | 6.66036 | 3858 ft | 190 kts | 102° |
| 2026-05-08 18:07 | 53.14016 | 6.68058 | 4302 ft | 216 kts | 134° |
| 2026-05-08 18:07 | 53.12698 | 6.69325 | 5224 ft | 228 kts | 154° |
| 2026-05-08 18:08 | 53.11159 | 6.70376 | 5930 ft | 251 kts | 157° |
| 2026-05-08 18:08 | 53.09486 | 6.71497 | 6797 ft | 263 kts | 158° |
| 2026-05-08 18:08 | 53.07793 | 6.72676 | 7973 ft | 266 kts | 157° |
| 2026-05-08 18:08 | 53.06063 | 6.73889 | 9123 ft | 273 kts | 158° |
| 2026-05-08 18:09 | 53.04291 | 6.75120 | 10129 ft | 280 kts | 158° |
| 2026-05-08 18:09 | 53.02366 | 6.76036 | 10527 ft | 303 kts | 175° |
| 2026-05-08 18:09 | 53.00207 | 6.75338 | 10511 ft | 336 kts | 204° |
| 2026-05-08 18:09 | 52.98431 | 6.72814 | 10979 ft | 345 kts | 234° |
| 2026-05-08 18:10 | 52.97552 | 6.69184 | 11731 ft | 332 kts | 259° |
| 2026-05-08 18:10 | 52.97362 | 6.65514 | 12728 ft | 312 kts | 267° |
| 2026-05-08 18:10 | 52.97261 | 6.61879 | 13152 ft | 318 kts | 266° |
| 2026-05-08 18:10 | 52.97019 | 6.58218 | 13704 ft | 319 kts | 262° |
| 2026-05-08 18:11 | 52.96663 | 6.54567 | 14201 ft | 322 kts | 261° |
| 2026-05-08 18:11 | 52.96342 | 6.50874 | 14686 ft | 324 kts | 263° |
| 2026-05-08 18:11 | 52.95979 | 6.47176 | 15092 ft | 328 kts | 255° |
| 2026-05-08 18:11 | 52.94863 | 6.43869 | 15524 ft | 331 kts | 232° |
| 2026-05-08 18:12 | 52.93108 | 6.41393 | 16044 ft | 333 kts | 215° |
| 2026-05-08 18:12 | 52.91160 | 6.39312 | 16553 ft | 335 kts | 213° |
| 2026-05-08 18:12 | 52.89182 | 6.37232 | 17021 ft | 337 kts | 214° |
| 2026-05-08 18:12 | 52.87209 | 6.35110 | 17509 ft | 340 kts | 214° |
| 2026-05-08 18:13 | 52.85224 | 6.32962 | 17998 ft | 342 kts | 214° |
| 2026-05-08 18:13 | 52.83242 | 6.30838 | 18476 ft | 345 kts | 214° |
| 2026-05-08 18:13 | 52.81220 | 6.28684 | 18914 ft | 347 kts | 214° |
| 2026-05-08 18:13 | 52.79152 | 6.26613 | 19295 ft | 351 kts | 208° |
| 2026-05-08 18:14 | 52.76756 | 6.25659 | 19647 ft | 358 kts | 186° |
| 2026-05-08 18:14 | 52.74269 | 6.25560 | 20183 ft | 359 kts | 182° |
| 2026-05-08 18:14 | 52.71763 | 6.25582 | 20644 ft | 362 kts | 181° |
| 2026-05-08 18:14 | 52.69238 | 6.25581 | 21115 ft | 364 kts | 182° |
| 2026-05-08 18:15 | 52.66703 | 6.25528 | 21690 ft | 362 kts | 182° |
| 2026-05-08 18:15 | 52.64217 | 6.25483 | 22518 ft | 356 kts | 182° |
| 2026-05-08 18:15 | 52.61711 | 6.25458 | 22912 ft | 362 kts | 182° |
| 2026-05-08 18:15 | 52.59185 | 6.25436 | 23429 ft | 364 kts | 182° |
| 2026-05-08 18:16 | 52.56637 | 6.25404 | 23883 ft | 367 kts | 182° |
| 2026-05-08 18:16 | 52.54070 | 6.25368 | 24297 ft | 370 kts | 182° |
| 2026-05-08 18:16 | 52.51490 | 6.25337 | 24707 ft | 372 kts | 182° |
| 2026-05-08 18:16 | 52.48916 | 6.25308 | 25112 ft | 375 kts | 182° |
| 2026-05-08 18:17 | 52.46294 | 6.25277 | 25535 ft | 378 kts | 182° |
| 2026-05-08 18:17 | 52.43656 | 6.25244 | 25968 ft | 381 kts | 182° |
| 2026-05-08 18:17 | 52.40993 | 6.25211 | 26403 ft | 384 kts | 182° |
| 2026-05-08 18:17 | 52.38316 | 6.25179 | 26741 ft | 386 kts | 182° |
| 2026-05-08 18:18 | 52.35618 | 6.25147 | 27057 ft | 389 kts | 182° |
| 2026-05-08 18:18 | 52.32908 | 6.25114 | 27401 ft | 391 kts | 182° |
| 2026-05-08 18:18 | 52.30171 | 6.25081 | 27740 ft | 393 kts | 182° |
| 2026-05-08 18:18 | 52.27426 | 6.25047 | 28078 ft | 396 kts | 182° |
| 2026-05-08 18:19 | 52.24670 | 6.24874 | 28345 ft | 398 kts | 189° |
| 2026-05-08 18:19 | 52.22002 | 6.23723 | 28661 ft | 397 kts | 199° |
| 2026-05-08 18:19 | 52.20256 | 6.22834 | 28893 ft | 397 kts | 199° |
| 2026-05-08 18:19 | 52.16731 | 6.21100 | 29169 ft | 401 kts | 198° |
| 2026-05-08 18:20 | 52.14017 | 6.19786 | 29425 ft | 403 kts | 198° |
| 2026-05-08 18:20 | 52.11366 | 6.18481 | 29657 ft | 404 kts | 199° |
| 2026-05-08 18:20 | 52.08665 | 6.17144 | 29889 ft | 407 kts | 199° |
| 2026-05-08 18:20 | 52.05951 | 6.15813 | 30128 ft | 408 kts | 198° |
| 2026-05-08 18:21 | 52.03222 | 6.14483 | 30335 ft | 410 kts | 198° |
| 2026-05-08 18:21 | 52.01373 | 6.13581 | 30479 ft | 411 kts | 198° |
| 2026-05-08 18:21 | 51.98625 | 6.12236 | 30681 ft | 413 kts | 198° |
| 2026-05-08 18:21 | 51.95869 | 6.10890 | 30879 ft | 415 kts | 198° |
| 2026-05-08 18:22 | 51.93101 | 6.09551 | 31086 ft | 416 kts | 198° |
| 2026-05-08 18:22 | 51.90219 | 6.08822 | 31070 ft | 425 kts | 183° |
| 2026-05-08 18:22 | 51.87287 | 6.09200 | 31079 ft | 433 kts | 170° |
| 2026-05-08 18:22 | 51.84375 | 6.10738 | 31094 ft | 439 kts | 156° |
| 2026-05-08 18:23 | 51.81765 | 6.13358 | 31094 ft | 445 kts | 142° |
| 2026-05-08 18:23 | 51.79589 | 6.16853 | 31126 ft | 448 kts | 131° |
| 2026-05-08 18:23 | 51.75478 | 6.24447 | 31114 ft | 448 kts | 131° |
| 2026-05-08 18:24 | 51.71382 | 6.31882 | 31105 ft | 438 kts | 131° |
| 2026-05-08 18:24 | 51.67373 | 6.39186 | 31107 ft | 430 kts | 131° |
| 2026-05-08 18:25 | 51.63428 | 6.46333 | 31102 ft | 423 kts | 131° |
| 2026-05-08 18:25 | 51.59569 | 6.53318 | 31100 ft | 417 kts | 131° |
| 2026-05-08 18:26 | 51.56006 | 6.59746 | 31096 ft | 413 kts | 131° |
| 2026-05-08 18:26 | 51.52206 | 6.66584 | 31098 ft | 408 kts | 132° |
| 2026-05-08 18:27 | 51.49064 | 6.72225 | 31097 ft | 406 kts | 132° |
| 2026-05-08 18:27 | 51.44674 | 6.80083 | 31096 ft | 403 kts | 132° |
| 2026-05-08 18:28 | 51.40957 | 6.86782 | 31084 ft | 401 kts | 129° |
| 2026-05-08 18:28 | 51.39552 | 6.90634 | 31108 ft | 400 kts | 115° |
| 2026-05-08 18:28 | 51.38389 | 6.94604 | 31110 ft | 400 kts | 115° |
| 2026-05-08 18:29 | 51.35989 | 7.02664 | 31115 ft | 402 kts | 116° |
| 2026-05-08 18:29 | 51.33570 | 7.10752 | 31113 ft | 404 kts | 116° |
| 2026-05-08 18:30 | 51.31133 | 7.18887 | 31121 ft | 406 kts | 116° |
| 2026-05-08 18:30 | 51.28678 | 7.27046 | 31115 ft | 408 kts | 116° |
| 2026-05-08 18:31 | 51.26230 | 7.35160 | 31121 ft | 408 kts | 116° |
| 2026-05-08 18:31 | 51.23759 | 7.43314 | 31119 ft | 408 kts | 116° |
| 2026-05-08 18:32 | 51.21284 | 7.51460 | 31116 ft | 408 kts | 116° |
| 2026-05-08 18:32 | 51.18806 | 7.59588 | 31115 ft | 407 kts | 116° |
| 2026-05-08 18:33 | 51.16042 | 7.67409 | 31064 ft | 405 kts | 131° |
| 2026-05-08 18:33 | 51.13973 | 7.70412 | 31096 ft | 401 kts | 144° |
| 2026-05-08 18:33 | 51.11670 | 7.72885 | 31122 ft | 399 kts | 149° |
| 2026-05-08 18:34 | 51.06948 | 7.77562 | 31119 ft | 400 kts | 148° |
| 2026-05-08 18:34 | 51.02318 | 7.82486 | 31121 ft | 401 kts | 148° |
| 2026-05-08 18:35 | 50.97626 | 7.87268 | 31119 ft | 410 kts | 148° |
| 2026-05-08 18:35 | 50.92756 | 7.92325 | 31124 ft | 426 kts | 148° |
| 2026-05-08 18:36 | 50.87685 | 7.97523 | 31119 ft | 441 kts | 148° |
| 2026-05-08 18:36 | 50.82473 | 8.02877 | 31116 ft | 452 kts | 148° |
| 2026-05-08 18:37 | 50.79643 | 8.05032 | 31071 ft | 453 kts | 161° |
| 2026-05-08 18:37 | 50.76659 | 8.06685 | 31116 ft | 457 kts | 161° |
| 2026-05-08 18:37 | 50.70726 | 8.10477 | 31110 ft | 462 kts | 159° |
| 2026-05-08 18:38 | 50.64740 | 8.14112 | 31112 ft | 460 kts | 161° |
| 2026-05-08 18:38 | 50.58800 | 8.17780 | 31111 ft | 457 kts | 159° |
| 2026-05-08 18:39 | 50.55845 | 8.19617 | 30888 ft | 454 kts | 160° |
| 2026-05-08 18:39 | 50.52907 | 8.21393 | 30484 ft | 450 kts | 160° |
| 2026-05-08 18:39 | 50.49998 | 8.23152 | 30067 ft | 445 kts | 160° |
| 2026-05-08 18:39 | 50.47135 | 8.24913 | 29596 ft | 439 kts | 160° |
| 2026-05-08 18:40 | 50.44309 | 8.26650 | 29130 ft | 434 kts | 160° |
| 2026-05-08 18:40 | 50.41542 | 8.28332 | 28583 ft | 431 kts | 160° |
| 2026-05-08 18:40 | 50.38743 | 8.30026 | 27894 ft | 431 kts | 160° |
| 2026-05-08 18:40 | 50.35957 | 8.31720 | 27227 ft | 428 kts | 160° |
| 2026-05-08 18:41 | 50.33183 | 8.33409 | 26577 ft | 425 kts | 160° |
| 2026-05-08 18:41 | 50.30436 | 8.35075 | 25941 ft | 422 kts | 160° |
| 2026-05-08 18:41 | 50.27711 | 8.36722 | 25318 ft | 418 kts | 161° |
| 2026-05-08 18:41 | 50.25012 | 8.38353 | 24698 ft | 415 kts | 161° |
| 2026-05-08 18:42 | 50.22326 | 8.39977 | 24111 ft | 411 kts | 161° |
| 2026-05-08 18:42 | 50.19666 | 8.41582 | 23504 ft | 408 kts | 161° |
| 2026-05-08 18:42 | 50.17039 | 8.43164 | 22890 ft | 403 kts | 161° |
| 2026-05-08 18:42 | 50.14438 | 8.44729 | 22298 ft | 398 kts | 161° |
| 2026-05-08 18:43 | 50.11868 | 8.46274 | 21719 ft | 393 kts | 161° |
| 2026-05-08 18:43 | 50.09335 | 8.47796 | 21148 ft | 389 kts | 161° |
| 2026-05-08 18:43 | 50.06821 | 8.49303 | 20585 ft | 384 kts | 161° |
| 2026-05-08 18:43 | 50.04344 | 8.50787 | 20125 ft | 378 kts | 161° |
| 2026-05-08 18:44 | 50.01915 | 8.52242 | 19752 ft | 369 kts | 161° |
| 2026-05-08 18:44 | 49.99537 | 8.53663 | 19381 ft | 363 kts | 161° |
| 2026-05-08 18:44 | 49.97190 | 8.55063 | 19014 ft | 362 kts | 161° |
| 2026-05-08 18:44 | 49.94843 | 8.56463 | 18656 ft | 359 kts | 161° |
| 2026-05-08 18:45 | 49.92516 | 8.57851 | 18288 ft | 357 kts | 161° |
| 2026-05-08 18:45 | 49.90205 | 8.59226 | 17866 ft | 354 kts | 161° |
| 2026-05-08 18:45 | 49.87904 | 8.60594 | 17383 ft | 352 kts | 161° |
| 2026-05-08 18:45 | 49.85630 | 8.61945 | 16889 ft | 349 kts | 161° |
| 2026-05-08 18:46 | 49.83365 | 8.63288 | 16362 ft | 348 kts | 160° |
| 2026-05-08 18:46 | 49.81114 | 8.64623 | 15861 ft | 347 kts | 160° |
| 2026-05-08 18:46 | 49.78865 | 8.65955 | 15354 ft | 345 kts | 160° |
| 2026-05-08 18:46 | 49.76638 | 8.67273 | 14992 ft | 337 kts | 160° |
| 2026-05-08 18:47 | 49.74471 | 8.68507 | 14727 ft | 326 kts | 163° |
| 2026-05-08 18:47 | 49.72246 | 8.68826 | 14361 ft | 321 kts | 184° |
| 2026-05-08 18:47 | 49.70037 | 8.68512 | 14141 ft | 317 kts | 186° |
| 2026-05-08 18:47 | 49.67864 | 8.68201 | 14086 ft | 307 kts | 186° |
| 2026-05-08 18:48 | 49.65783 | 8.67931 | 14028 ft | 296 kts | 185° |
| 2026-05-08 18:48 | 49.63714 | 8.67661 | 13394 ft | 298 kts | 186° |
| 2026-05-08 18:48 | 49.61661 | 8.67383 | 12729 ft | 294 kts | 186° |
| 2026-05-08 18:48 | 49.59640 | 8.67111 | 12157 ft | 291 kts | 186° |
| 2026-05-08 18:49 | 49.57616 | 8.66839 | 11692 ft | 292 kts | 186° |
| 2026-05-08 18:49 | 49.55604 | 8.66570 | 11245 ft | 289 kts | 186° |
| 2026-05-08 18:49 | 49.53625 | 8.66307 | 10798 ft | 281 kts | 186° |
| 2026-05-08 18:49 | 49.51728 | 8.66055 | 10348 ft | 274 kts | 186° |
| 2026-05-08 18:50 | 49.49838 | 8.65802 | 9850 ft | 270 kts | 186° |
| 2026-05-08 18:50 | 49.47982 | 8.65554 | 9310 ft | 266 kts | 186° |
| 2026-05-08 18:50 | 49.46157 | 8.65311 | 8787 ft | 262 kts | 186° |
| 2026-05-08 18:50 | 49.44355 | 8.65071 | 8271 ft | 258 kts | 186° |
| 2026-05-08 18:51 | 49.42571 | 8.64834 | 7761 ft | 256 kts | 186° |
| 2026-05-08 18:51 | 49.40804 | 8.64599 | 7269 ft | 254 kts | 186° |
| 2026-05-08 18:51 | 49.39039 | 8.64360 | 7070 ft | 251 kts | 186° |
| 2026-05-08 18:51 | 49.37330 | 8.64127 | 6939 ft | 241 kts | 186° |
| 2026-05-08 18:52 | 49.35709 | 8.63909 | 6759 ft | 232 kts | 186° |
| 2026-05-08 18:52 | 49.34124 | 8.63705 | 6574 ft | 225 kts | 186° |
| 2026-05-08 18:52 | 49.32573 | 8.63572 | 6377 ft | 222 kts | 182° |
| 2026-05-08 18:52 | 49.31043 | 8.63680 | 6180 ft | 219 kts | 176° |
| 2026-05-08 18:53 | 49.29539 | 8.63913 | 5988 ft | 216 kts | 175° |
| 2026-05-08 18:53 | 49.28051 | 8.64146 | 5805 ft | 214 kts | 175° |
| 2026-05-08 18:53 | 49.26563 | 8.64364 | 5487 ft | 218 kts | 175° |
| 2026-05-08 18:53 | 49.25026 | 8.64556 | 5048 ft | 226 kts | 175° |
| 2026-05-08 18:54 | 49.23430 | 8.64709 | 4625 ft | 232 kts | 175° |
| 2026-05-08 18:54 | 49.21805 | 8.64836 | 4223 ft | 235 kts | 175° |
| 2026-05-08 18:54 | 49.20171 | 8.65038 | 3820 ft | 236 kts | 171° |
| 2026-05-08 18:54 | 49.18553 | 8.65439 | 3568 ft | 231 kts | 168° |
| 2026-05-08 18:55 | 49.15545 | 8.66226 | 3559 ft | 209 kts | 165° |
| 2026-05-08 18:55 | 49.14159 | 8.66736 | 3556 ft | 202 kts | 163° |
| 2026-05-08 18:55 | 49.12809 | 8.67251 | 3557 ft | 199 kts | 163° |
| 2026-05-08 18:56 | 49.11493 | 8.67747 | 3556 ft | 195 kts | 163° |
| 2026-05-08 18:56 | 49.10171 | 8.68245 | 3557 ft | 192 kts | 163° |
| 2026-05-08 18:56 | 49.08854 | 8.68190 | 3458 ft | 196 kts | 200° |
| 2026-05-08 18:56 | 49.07825 | 8.66932 | 3513 ft | 191 kts | 229° |
| 2026-05-08 18:57 | 49.07303 | 8.65123 | 3553 ft | 186 kts | 259° |
| 2026-05-08 18:57 | 49.07304 | 8.63808 | 3552 ft | 183 kts | 279° |
| 2026-05-08 18:57 | 49.07706 | 8.61341 | 3572 ft | 181 kts | 285° |
| 2026-05-08 18:57 | 49.07986 | 8.59481 | 3573 ft | 179 kts | 284° |
| 2026-05-08 18:58 | 49.08258 | 8.57638 | 3576 ft | 177 kts | 284° |
| 2026-05-08 18:58 | 49.08535 | 8.55827 | 3539 ft | 169 kts | 287° |
| 2026-05-08 18:58 | 49.09095 | 8.54402 | 3529 ft | 148 kts | 316° |
| 2026-05-08 18:58 | 49.09945 | 8.53493 | 3350 ft | 151 kts | 340° |
| 2026-05-08 18:59 | 49.10940 | 8.53073 | 3184 ft | 147 kts | 350° |
| 2026-05-08 18:59 | 49.11931 | 8.52670 | 3068 ft | 146 kts | 349° |
| 2026-05-08 18:59 | 49.12886 | 8.52278 | 3069 ft | 144 kts | 349° |
| 2026-05-08 18:59 | 49.13894 | 8.51875 | 3079 ft | 156 kts | 349° |
| 2026-05-08 19:00 | 49.14604 | 8.51589 | 3085 ft | 162 kts | 349° |
| 2026-05-08 19:00 | 49.16108 | 8.50982 | 3081 ft | 170 kts | 349° |
| 2026-05-08 19:00 | 49.17258 | 8.50517 | 3084 ft | 172 kts | 348° |
| 2026-05-08 19:00 | 49.18427 | 8.50046 | 2994 ft | 178 kts | 348° |
| 2026-05-08 19:01 | 49.19652 | 8.49552 | 2699 ft | 178 kts | 348° |
| 2026-05-08 19:01 | 49.20828 | 8.49074 | 2309 ft | 172 kts | 349° |
| 2026-05-08 19:01 | 49.21952 | 8.48619 | 2028 ft | 160 kts | 349° |
| 2026-05-08 19:01 | 49.22975 | 8.48206 | 1781 ft | 148 kts | 349° |
| 2026-05-08 19:02 | 49.23941 | 8.47817 | 1546 ft | 140 kts | 349° |
| 2026-05-08 19:02 | 49.24887 | 8.47451 | 1339 ft | 140 kts | 349° |
| 2026-05-08 19:02 | 49.25831 | 8.47089 | 1132 ft | 139 kts | 348° |
| 2026-05-08 19:02 | 49.26759 | 8.46708 | 930 ft | 139 kts | 344° |
| 2026-05-08 19:03 | 49.27690 | 8.46290 | 709 ft | 135 kts | 346° |
| 2026-05-08 19:03 | 49.28567 | 8.45944 | 524 ft | 127 kts | 347° |
| 2026-05-08 19:03 | 49.29394 | 8.45610 | 404 ft | 119 kts | 347° |
| 2026-05-08 19:03 | 49.30174 | 8.45301 | 393 ft | 116 kts | 347° |
| 2026-05-08 19:04 | 49.31077 | 8.44944 | 646 ft | 147 kts | 347° |
| 2026-05-08 19:04 | 49.32154 | 8.44561 | 1066 ft | 162 kts | 348° |
| 2026-05-08 19:04 | 49.33144 | 8.44184 | 1711 ft | 132 kts | 350° |
| 2026-05-08 19:04 | 49.34033 | 8.43791 | 2225 ft | 133 kts | 348° |
| 2026-05-08 19:05 | 49.35019 | 8.43323 | 2267 ft | 170 kts | 346° |
| 2026-05-08 19:05 | 49.35991 | 8.42096 | 2059 ft | 191 kts | 309° |
| 2026-05-08 19:05 | 49.36450 | 8.40204 | 2042 ft | 191 kts | 278° |
| 2026-05-08 19:05 | 49.36238 | 8.38231 | 2054 ft | 187 kts | 247° |
| 2026-05-08 19:06 | 49.35455 | 8.36742 | 2241 ft | 173 kts | 216° |
| 2026-05-08 19:06 | 49.34428 | 8.36032 | 2639 ft | 153 kts | 189° |
| 2026-05-08 19:06 | 49.33408 | 8.35944 | 3085 ft | 152 kts | 177° |
| 2026-05-08 19:06 | 49.32321 | 8.35869 | 3565 ft | 161 kts | 180° |
| 2026-05-08 19:07 | 49.31175 | 8.35798 | 4055 ft | 170 kts | 179° |
| 2026-05-08 19:07 | 49.29968 | 8.35736 | 4550 ft | 177 kts | 179° |
| 2026-05-08 19:07 | 49.28712 | 8.35674 | 5042 ft | 184 kts | 180° |
| 2026-05-08 19:07 | 49.27426 | 8.35836 | 5463 ft | 189 kts | 167° |
| 2026-05-08 19:08 | 49.26588 | 8.36201 | 5783 ft | 190 kts | 164° |
| 2026-05-08 19:08 | 49.25303 | 8.36750 | 6132 ft | 199 kts | 166° |
| 2026-05-08 19:08 | 49.23886 | 8.37320 | 6076 ft | 213 kts | 166° |
| 2026-05-08 19:08 | 49.22451 | 8.37897 | 6074 ft | 218 kts | 166° |
| 2026-05-08 19:09 | 49.20984 | 8.38494 | 6081 ft | 218 kts | 166° |
| 2026-05-08 19:09 | 49.19513 | 8.39092 | 6078 ft | 219 kts | 166° |
| 2026-05-08 19:09 | 49.18041 | 8.39688 | 6074 ft | 219 kts | 166° |
| 2026-05-08 19:09 | 49.16562 | 8.40287 | 6076 ft | 220 kts | 166° |
| 2026-05-08 19:10 | 49.15099 | 8.40880 | 6066 ft | 215 kts | 166° |
| 2026-05-08 19:10 | 49.13664 | 8.41461 | 6059 ft | 211 kts | 166° |
| 2026-05-08 19:10 | 49.12260 | 8.42033 | 6058 ft | 205 kts | 166° |
| 2026-05-08 19:10 | 49.11047 | 8.43085 | 5978 ft | 199 kts | 136° |
| 2026-05-08 19:11 | 49.10408 | 8.44883 | 5997 ft | 195 kts | 109° |
| 2026-05-08 19:11 | 49.10061 | 8.46889 | 6072 ft | 197 kts | 107° |
| 2026-05-08 19:11 | 49.09698 | 8.48929 | 6076 ft | 201 kts | 107° |
| 2026-05-08 19:11 | 49.09324 | 8.51003 | 6080 ft | 205 kts | 107° |
| 2026-05-08 19:12 | 49.08946 | 8.53120 | 6079 ft | 209 kts | 107° |
| 2026-05-08 19:12 | 49.08562 | 8.55270 | 6081 ft | 210 kts | 107° |
| 2026-05-08 19:12 | 49.08181 | 8.57399 | 6082 ft | 211 kts | 107° |
| 2026-05-08 19:12 | 49.07764 | 8.59538 | 6063 ft | 209 kts | 112° |
| 2026-05-08 19:13 | 49.07031 | 8.61424 | 6061 ft | 204 kts | 130° |
| 2026-05-08 19:13 | 49.06011 | 8.62927 | 5892 ft | 208 kts | 145° |
| 2026-05-08 19:13 | 49.04712 | 8.63975 | 5620 ft | 215 kts | 160° |
| 2026-05-08 19:13 | 49.03238 | 8.64367 | 5259 ft | 222 kts | 184° |
| 2026-05-08 19:14 | 49.01842 | 8.63273 | 4866 ft | 234 kts | 226° |
| 2026-05-08 19:14 | 49.01259 | 8.61056 | 4870 ft | 224 kts | 263° |
| 2026-05-08 19:14 | 49.01496 | 8.58792 | 4871 ft | 215 kts | 294° |
| 2026-05-08 19:14 | 49.02437 | 8.57108 | 4893 ft | 206 kts | 325° |
| 2026-05-08 19:15 | 49.03724 | 8.56292 | 4950 ft | 195 kts | 345° |
| 2026-05-08 19:15 | 49.04998 | 8.55701 | 5013 ft | 191 kts | 344° |
| 2026-05-08 19:15 | 49.06316 | 8.55079 | 5016 ft | 201 kts | 344° |
| 2026-05-08 19:15 | 49.07620 | 8.54467 | 5008 ft | 194 kts | 344° |
| 2026-05-08 19:16 | 49.08913 | 8.53871 | 5004 ft | 194 kts | 345° |
| 2026-05-08 19:16 | 49.10245 | 8.53884 | 4933 ft | 192 kts | 18° |
| 2026-05-08 19:16 | 49.11365 | 8.54922 | 4973 ft | 189 kts | 46° |
| 2026-05-08 19:16 | 49.11989 | 8.56638 | 4984 ft | 189 kts | 76° |
| 2026-05-08 19:17 | 49.11979 | 8.58614 | 4986 ft | 188 kts | 104° |
| 2026-05-08 19:17 | 49.11328 | 8.60323 | 4995 ft | 188 kts | 133° |
| 2026-05-08 19:17 | 49.10203 | 8.61331 | 4995 ft | 189 kts | 159° |
| 2026-05-08 19:17 | 49.08945 | 8.61921 | 5022 ft | 191 kts | 161° |
| 2026-05-08 19:18 | 49.07676 | 8.62539 | 5019 ft | 191 kts | 161° |
| 2026-05-08 19:18 | 49.06412 | 8.63152 | 5014 ft | 190 kts | 161° |
| 2026-05-08 19:18 | 49.05152 | 8.63758 | 5008 ft | 190 kts | 161° |
| 2026-05-08 19:18 | 49.03878 | 8.64319 | 4979 ft | 194 kts | 168° |
| 2026-05-08 19:19 | 49.02537 | 8.63849 | 4914 ft | 204 kts | 206° |
| 2026-05-08 19:19 | 49.01494 | 8.62269 | 4946 ft | 220 kts | 239° |
| 2026-05-08 19:19 | 49.01207 | 8.60005 | 4972 ft | 222 kts | 274° |
| 2026-05-08 19:19 | 49.01799 | 8.57905 | 4972 ft | 222 kts | 309° |
| 2026-05-08 19:20 | 49.03070 | 8.56608 | 4753 ft | 226 kts | 339° |
| 2026-05-08 19:20 | 49.04078 | 8.56118 | 4520 ft | 224 kts | 345° |
| 2026-05-08 19:20 | 49.06044 | 8.55259 | 4049 ft | 221 kts | 345° |
| 2026-05-08 19:20 | 49.07558 | 8.54530 | 3693 ft | 234 kts | 344° |
| 2026-05-08 19:21 | 49.09131 | 8.53801 | 3489 ft | 232 kts | 348° |
| 2026-05-08 19:21 | 49.10653 | 8.53201 | 3500 ft | 221 kts | 346° |
| 2026-05-08 19:21 | 49.12123 | 8.52600 | 3357 ft | 218 kts | 348° |
| 2026-05-08 19:21 | 49.13582 | 8.52026 | 3196 ft | 215 kts | 348° |
| 2026-05-08 19:22 | 49.15018 | 8.51442 | 3022 ft | 213 kts | 348° |
| 2026-05-08 19:22 | 49.16415 | 8.50866 | 2992 ft | 202 kts | 348° |
| 2026-05-08 19:22 | 49.17734 | 8.50324 | 3003 ft | 190 kts | 348° |
| 2026-05-08 19:22 | 49.18988 | 8.49812 | 2848 ft | 186 kts | 348° |
| 2026-05-08 19:23 | 49.20255 | 8.49307 | 2550 ft | 190 kts | 348° |
| 2026-05-08 19:23 | 49.21537 | 8.48792 | 2253 ft | 189 kts | 349° |
| 2026-05-08 19:23 | 49.22745 | 8.48298 | 1942 ft | 165 kts | 348° |
| 2026-05-08 19:23 | 49.23791 | 8.47873 | 1692 ft | 149 kts | 349° |
| 2026-05-08 19:24 | 49.24736 | 8.47493 | 1461 ft | 131 kts | 349° |
| 2026-05-08 19:24 | 49.25577 | 8.47154 | 1265 ft | 121 kts | 348° |
| 2026-05-08 19:24 | 49.26392 | 8.46830 | 1085 ft | 120 kts | 347° |
| 2026-05-08 19:24 | 49.27211 | 8.46512 | 912 ft | 122 kts | 346° |
| 2026-05-08 19:25 | 49.28031 | 8.46164 | 783 ft | 122 kts | 347° |
| 2026-05-08 19:25 | 49.28859 | 8.45823 | 524 ft | 123 kts | 346° |
| 2026-05-08 19:25 | 49.29660 | 8.45504 | 352 ft | 115 kts | 347° |
| 2026-05-08 19:25 | 49.30346 | 8.45229 | 322 ft | 82 kts | 345° |
| 2026-05-08 19:26 | 49.30653 | 8.45105 | 324 ft | 23 kts | 346° |
| 2026-05-08 19:26 | 49.30776 | 8.45055 | 326 ft | 17 kts | 345° |
| 2026-05-08 19:26 | 49.30883 | 8.45013 | 324 ft | 15 kts | 346° |
| 2026-05-08 19:26 | 49.30916 | 8.45071 | 325 ft | 8 kts | 99° |
| 2026-05-08 19:27 | 49.30881 | 8.45113 | 325 ft | 6 kts | 163° |
| 2026-05-08 19:27 | 49.30828 | 8.45137 | 324 ft | 9 kts | 161° |
| 2026-05-08 19:27 | 49.30762 | 8.45174 | 323 ft | 11 kts | 159° |
| 2026-05-08 19:27 | 49.30690 | 8.45215 | 324 ft | 11 kts | 162° |
| 2026-05-08 19:28 | 49.30617 | 8.45246 | 323 ft | 11 kts | 168° |
| 2026-05-08 19:28 | 49.30542 | 8.45274 | 324 ft | 11 kts | 165° |
| 2026-05-08 19:28 | 49.30469 | 8.45306 | 325 ft | 11 kts | 164° |
| 2026-05-08 19:28 | 49.30402 | 8.45333 | 325 ft | 7 kts | 165° |
| 2026-05-08 19:29 | 49.30393 | 8.45378 | 325 ft | 4 kts | 56° |
| 2026-05-08 19:29 | 49.30414 | 8.45381 | 325 ft | 3 kts | 346° |
| 2026-05-08 19:29 | 49.30416 | 8.45380 | 325 ft | 0 kts | 346° |